createdAt,value
2017-12-28T00:00:59.306Z,98077.92
2017-12-28T00:03:28.022Z,98093.14
2017-12-28T00:06:02.210Z,98099.64
2017-12-28T00:18:27.543Z,98122.08
2017-12-28T00:20:55.732Z,98128.41
2017-12-28T00:23:26.066Z,98132.94
2017-12-28T00:25:57.901Z,98136.44
2017-12-28T00:28:26.165Z,98145.15
2017-12-28T00:30:55.495Z,98138.77
2017-12-28T00:33:24.429Z,98143.22
2017-12-28T00:35:58.015Z,98151.50
2017-12-28T00:38:30.646Z,98146.19
2017-12-28T00:41:00.412Z,98151.88
2017-12-28T00:43:36.310Z,98160.13
2017-12-28T00:46:04.303Z,98164.13
2017-12-28T00:48:38.077Z,98169.59
2017-12-28T00:51:09.549Z,98168.83
2017-12-28T00:53:37.288Z,98168.66
2017-12-28T00:56:10.434Z,98173.43
2017-12-28T00:58:44.871Z,98174.34
2017-12-28T01:01:16.713Z,98184.26
2017-12-28T01:03:49.212Z,98199.39
2017-12-28T01:06:22.723Z,98198.16
2017-12-28T01:08:51.005Z,98202.54
2017-12-28T01:11:18.714Z,98208.39
2017-12-28T01:13:48.820Z,98210.44
2017-12-28T01:16:16.536Z,98213.89
2017-12-28T01:18:43.558Z,98211.17
2017-12-28T01:21:12.522Z,98220.30
2017-12-28T01:23:39.845Z,98223.70
2017-12-28T01:26:07.648Z,98231.60
2017-12-28T01:28:34.887Z,98230.41
2017-12-28T01:31:07.827Z,98238.56
2017-12-28T01:33:35.458Z,98242.05
2017-12-28T01:36:02.333Z,98250.81
2017-12-28T01:38:31.733Z,98245.19
2017-12-28T01:41:00.280Z,98245.92
2017-12-28T01:43:30.481Z,98250.00
2017-12-28T01:45:58.498Z,98254.83
2017-12-28T01:48:30.628Z,98264.88
2017-12-28T01:50:57.494Z,98258.41
2017-12-28T01:53:24.618Z,98276.28
2017-12-28T01:55:54.886Z,98269.00
2017-12-28T01:58:22.758Z,98273.63
2017-12-28T02:00:54.815Z,98284.83
2017-12-28T02:03:23.023Z,98284.67
2017-12-28T02:05:50.378Z,98290.58
2017-12-28T02:08:18.013Z,98298.29
2017-12-28T02:10:45.724Z,98297.86
2017-12-28T02:13:12.739Z,98308.24
2017-12-28T02:15:39.703Z,98308.72
2017-12-28T02:18:07.711Z,98304.83
2017-12-28T02:20:34.897Z,98315.50
2017-12-28T02:23:01.905Z,98313.37
2017-12-28T02:25:34.243Z,98325.13
2017-12-28T02:28:01.314Z,98325.77
2017-12-28T02:30:28.129Z,98331.42
2017-12-28T02:33:00.705Z,98329.23
2017-12-28T02:35:27.627Z,98341.84
2017-12-28T02:37:54.720Z,98339.83
2017-12-28T02:40:22.483Z,98333.75
2017-12-28T02:42:49.344Z,98339.86
2017-12-28T02:45:16.182Z,98342.33
2017-12-28T02:47:50.465Z,98350.67
2017-12-28T02:50:17.439Z,98365.29
2017-12-28T02:52:47.878Z,98377.60
2017-12-28T02:55:20.723Z,98368.37
2017-12-28T02:57:47.923Z,98380.48
2017-12-28T03:00:21.162Z,98380.70
2017-12-28T03:02:48.470Z,98376.59
2017-12-28T03:05:15.738Z,98386.95
2017-12-28T03:07:43.117Z,98385.20
2017-12-28T03:10:10.842Z,98390.20
2017-12-28T03:12:37.876Z,98393.98
2017-12-28T03:15:05.125Z,98394.44
2017-12-28T03:17:35.126Z,98402.13
2017-12-28T03:20:02.347Z,98399.98
2017-12-28T03:22:30.330Z,98403.16
2017-12-28T03:24:57.982Z,98413.83
2017-12-28T03:27:25.282Z,98420.79
2017-12-28T03:29:57.776Z,98422.20
2017-12-28T03:32:25.372Z,98424.23
2017-12-28T03:34:53.040Z,98425.63
2017-12-28T03:37:23.126Z,98425.69
2017-12-28T03:39:51.597Z,98427.17
2017-12-28T03:42:18.635Z,98427.94
2017-12-28T03:44:50.900Z,98427.31
2017-12-28T03:47:17.935Z,98441.67
2017-12-28T03:49:44.796Z,98444.08
2017-12-28T03:52:11.599Z,98447.52
2017-12-28T03:54:40.239Z,98450.10
2017-12-28T03:57:08.111Z,98452.58
2017-12-28T03:59:40.241Z,98456.31
2017-12-28T04:02:12.555Z,98446.66
2017-12-28T04:04:43.914Z,98449.96
2017-12-28T04:07:12.200Z,98461.38
2017-12-28T04:09:39.311Z,98463.76
2017-12-28T04:12:06.291Z,98465.30
2017-12-28T04:14:38.483Z,98465.26
2017-12-28T04:17:05.512Z,98470.62
2017-12-28T04:19:33.121Z,98475.16
2017-12-28T04:22:00.090Z,98477.66
2017-12-28T04:24:26.976Z,98480.38
2017-12-28T04:26:54.049Z,98492.46
2017-12-28T04:29:27.374Z,98497.23
2017-12-28T04:31:54.605Z,98500.65
2017-12-28T04:34:27.395Z,98499.13
2017-12-28T04:36:54.390Z,98503.65
2017-12-28T04:39:22.335Z,98514.34
2017-12-28T04:41:49.511Z,98517.16
2017-12-28T04:44:16.819Z,98514.70
2017-12-28T04:46:43.711Z,98518.98
2017-12-28T04:49:11.075Z,98523.39
2017-12-28T04:51:38.055Z,98527.08
2017-12-28T04:54:11.545Z,98534.12
2017-12-28T04:56:38.483Z,98528.81
2017-12-28T04:59:05.569Z,98535.44
2017-12-28T05:01:32.602Z,98537.66
2017-12-28T05:04:00.579Z,98530.80
2017-12-28T05:06:33.829Z,98536.53
2017-12-28T05:09:06.171Z,98545.74
2017-12-28T05:11:32.971Z,98549.14
2017-12-28T05:14:00.183Z,98560.52
2017-12-28T05:16:27.784Z,98551.77
2017-12-28T05:18:54.642Z,98562.67
2017-12-28T05:21:26.699Z,98567.95
2017-12-28T05:23:54.416Z,98570.24
2017-12-28T05:26:26.592Z,98578.37
2017-12-28T05:28:53.562Z,98587.45
2017-12-28T05:31:20.518Z,98586.48
2017-12-28T05:33:58.894Z,98592.81
2017-12-28T05:36:25.870Z,98598.37
2017-12-28T05:38:54.066Z,98600.88
2017-12-28T05:41:26.293Z,98599.63
2017-12-28T05:43:54.371Z,98604.83
2017-12-28T05:46:21.692Z,98605.47
2017-12-28T05:48:48.655Z,98617.03
2017-12-28T05:51:15.613Z,98622.64
2017-12-28T05:53:42.501Z,98621.30
2017-12-28T05:56:09.353Z,98630.33
2017-12-28T05:58:42.540Z,98634.27
2017-12-28T06:01:10.288Z,98635.97
2017-12-28T06:03:37.611Z,98634.13
2017-12-28T06:06:05.603Z,98639.84
2017-12-28T06:08:33.433Z,98642.89
2017-12-28T06:11:00.320Z,98645.63
2017-12-28T06:13:33.296Z,98657.66
2017-12-28T06:16:00.324Z,98652.27
2017-12-28T06:18:27.162Z,98667.28
2017-12-28T06:20:55.240Z,98666.55
2017-12-28T06:23:22.230Z,98677.28
2017-12-28T06:25:54.220Z,98673.71
2017-12-28T06:28:21.419Z,98678.09
2017-12-28T06:30:49.241Z,98681.97
2017-12-28T06:33:16.976Z,98686.77
2017-12-28T06:35:45.401Z,98692.01
2017-12-28T06:38:12.813Z,98692.92
2017-12-28T06:40:46.574Z,98696.81
2017-12-28T06:43:19.639Z,98700.96
2017-12-28T06:45:47.188Z,98697.59
2017-12-28T06:48:14.828Z,98713.81
2017-12-28T06:50:42.442Z,98713.55
2017-12-28T06:53:09.822Z,98711.80
2017-12-28T06:55:42.195Z,98726.70
2017-12-28T06:58:09.833Z,98731.83
2017-12-28T07:00:41.943Z,98727.70
2017-12-28T07:03:08.990Z,98739.02
2017-12-28T07:05:36.622Z,98742.31
2017-12-28T07:08:03.447Z,98750.79
2017-12-28T07:10:30.427Z,98748.16
2017-12-28T07:12:58.007Z,98754.80
2017-12-28T07:15:26.525Z,98760.77
2017-12-28T07:17:53.940Z,98756.27
2017-12-28T07:20:26.377Z,98764.83
2017-12-28T07:22:53.388Z,98765.43
2017-12-28T07:25:20.167Z,98762.94
2017-12-28T07:27:47.193Z,98767.27
2017-12-28T07:30:14.908Z,98769.52
2017-12-28T07:32:44.926Z,98776.66
2017-12-28T07:35:12.789Z,98774.69
2017-12-28T07:37:40.004Z,98782.06
2017-12-28T07:40:06.805Z,98782.86
2017-12-28T07:42:33.779Z,98787.19
2017-12-28T07:45:00.811Z,98790.39
2017-12-28T07:47:27.808Z,98781.61
2017-12-28T07:49:57.868Z,98787.04
2017-12-28T07:52:24.907Z,98784.20
2017-12-28T07:54:52.096Z,98784.46
2017-12-28T07:57:19.083Z,98787.17
2017-12-28T07:59:46.764Z,98793.94
2017-12-28T08:02:14.598Z,98789.71
2017-12-28T08:04:41.639Z,98790.83
2017-12-28T08:07:08.597Z,98797.45
2017-12-28T08:09:36.279Z,98803.41
2017-12-28T08:12:03.110Z,98808.03
2017-12-28T08:14:35.363Z,98811.12
2017-12-28T08:17:03.879Z,98812.74
2017-12-28T08:19:31.508Z,98815.49
2017-12-28T08:21:58.320Z,98817.71
2017-12-28T08:24:26.039Z,98826.48
2017-12-28T08:26:52.937Z,98826.75
2017-12-28T08:29:25.089Z,98824.84
2017-12-28T08:31:52.278Z,98832.60
2017-12-28T08:34:20.391Z,98832.09
2017-12-28T08:36:47.729Z,98832.34
2017-12-28T08:39:14.566Z,98836.52
2017-12-28T08:41:42.175Z,98823.59
2017-12-28T08:44:12.732Z,98833.36
2017-12-28T08:46:40.018Z,98842.61
2017-12-28T08:49:12.937Z,98835.13
2017-12-28T08:51:45.229Z,98849.11
2017-12-28T08:54:12.187Z,98842.47
2017-12-28T08:56:39.165Z,98840.27
2017-12-28T08:59:07.196Z,98849.63
2017-12-28T09:01:34.326Z,98854.21
2017-12-28T09:04:01.148Z,98856.95
2017-12-28T09:06:28.775Z,98870.95
2017-12-28T09:08:56.817Z,98872.84
2017-12-28T09:11:23.743Z,98871.69
2017-12-28T09:13:50.635Z,98878.38
2017-12-28T09:16:22.510Z,98886.56
2017-12-28T09:18:49.412Z,98889.34
2017-12-28T09:21:19.627Z,98886.91
2017-12-28T09:23:46.651Z,98889.37
2017-12-28T09:26:13.712Z,98900.66
2017-12-28T09:28:40.904Z,98898.87
2017-12-28T09:31:07.890Z,98900.95
2017-12-28T09:33:34.837Z,98907.05
2017-12-28T09:36:04.879Z,98905.89
2017-12-28T09:38:34.807Z,98910.73
2017-12-28T09:41:02.194Z,98913.27
2017-12-28T09:43:29.169Z,98916.08
2017-12-28T09:46:01.093Z,98920.72
2017-12-28T09:48:33.411Z,98918.40
2017-12-28T09:51:00.534Z,98921.62
2017-12-28T09:53:32.783Z,98921.92
2017-12-28T09:56:01.066Z,98926.99
2017-12-28T09:58:28.111Z,98934.06
2017-12-28T10:00:55.057Z,98934.03
2017-12-28T10:03:27.332Z,98936.98
2017-12-28T10:05:54.570Z,98941.74
2017-12-28T10:08:22.044Z,98945.05
2017-12-28T10:10:49.919Z,98947.45
2017-12-28T10:13:16.775Z,98957.38
2017-12-28T10:15:43.537Z,98953.06
2017-12-28T10:18:10.370Z,98952.88
2017-12-28T10:20:37.215Z,98955.45
2017-12-28T10:23:04.049Z,98954.89
2017-12-28T10:25:31.595Z,98953.22
2017-12-28T10:27:58.389Z,98960.55
2017-12-28T10:30:25.994Z,98960.47
2017-12-28T10:32:52.781Z,98962.49
2017-12-28T10:35:19.585Z,98962.80
2017-12-28T10:37:47.125Z,98963.89
2017-12-28T10:40:13.968Z,98974.84
2017-12-28T10:42:40.777Z,98971.94
2017-12-28T10:45:08.349Z,98970.88
2017-12-28T10:47:35.159Z,98978.63
2017-12-28T10:50:01.996Z,98983.30
2017-12-28T10:52:28.787Z,98978.44
2017-12-28T10:54:55.627Z,98988.59
2017-12-28T10:57:22.465Z,98991.58
2017-12-28T10:59:50.041Z,98996.91
2017-12-28T11:02:16.852Z,98997.95
2017-12-28T11:04:43.689Z,98992.30
2017-12-28T11:07:10.505Z,98999.17
2017-12-28T11:09:37.326Z,98999.30
2017-12-28T11:12:04.178Z,99002.19
2017-12-28T11:14:31.032Z,99000.00
2017-12-28T11:16:57.875Z,98997.17
2017-12-28T11:19:25.410Z,99011.59
2017-12-28T11:21:52.204Z,99010.11
2017-12-28T11:24:19.763Z,99011.11
2017-12-28T11:26:46.631Z,99008.75
2017-12-28T11:29:13.438Z,99007.77
2017-12-28T11:31:40.263Z,99011.36
2017-12-28T11:34:07.847Z,99011.62
2017-12-28T11:36:35.439Z,99017.87
2017-12-28T11:39:02.290Z,99023.66
2017-12-28T11:41:29.074Z,99017.33
2017-12-28T11:43:55.884Z,99027.31
2017-12-28T11:46:22.700Z,99022.44
2017-12-28T11:48:49.549Z,99038.89
2017-12-28T11:51:17.166Z,99033.06
2017-12-28T11:53:53.945Z,99034.53
2017-12-28T11:56:20.845Z,99038.65
2017-12-28T11:58:49.491Z,99042.03
2017-12-28T12:01:19.336Z,99038.86
2017-12-28T12:03:48.102Z,99045.53
2017-12-28T12:06:29.862Z,99041.16
2017-12-28T12:08:56.700Z,99046.84
2017-12-28T12:11:23.499Z,99036.72
2017-12-28T12:13:50.314Z,99040.98
2017-12-28T12:16:17.107Z,99046.38
2017-12-28T12:18:43.931Z,99056.19
2017-12-28T12:21:10.739Z,99056.84
2017-12-28T12:23:37.576Z,99056.68
2017-12-28T12:26:04.373Z,99054.69
2017-12-28T12:28:31.961Z,99061.08
2017-12-28T12:30:59.526Z,99062.72
2017-12-28T12:33:27.154Z,99064.70
2017-12-28T12:35:53.973Z,99067.62
2017-12-28T12:38:22.251Z,99063.09
2017-12-28T12:40:49.089Z,99068.27
2017-12-28T12:43:15.895Z,99068.92
2017-12-28T12:45:43.530Z,99074.72
2017-12-28T12:48:10.344Z,99078.69
2017-12-28T12:50:37.201Z,99079.36
2017-12-28T12:53:04.810Z,99067.22
2017-12-28T12:55:31.653Z,99087.73
2017-12-28T12:57:58.446Z,99082.05
2017-12-28T13:00:25.287Z,99083.18
2017-12-28T13:02:52.118Z,99084.66
2017-12-28T13:05:18.986Z,99095.86
2017-12-28T13:07:46.530Z,99094.77
2017-12-28T13:10:13.390Z,99095.02
2017-12-28T13:12:40.220Z,99087.48
2017-12-28T13:15:07.051Z,99105.88
2017-12-28T13:17:33.882Z,99096.25
2017-12-28T13:20:00.694Z,99096.48
2017-12-28T13:22:27.512Z,99089.02
2017-12-28T13:24:54.304Z,99093.98
2017-12-28T13:27:21.140Z,99096.88
2017-12-28T13:29:48.676Z,99099.44
2017-12-28T13:32:15.471Z,99094.17
2017-12-28T13:34:43.878Z,99110.86
2017-12-28T13:37:11.418Z,99109.04
2017-12-28T13:39:38.245Z,99109.78
2017-12-28T13:42:05.091Z,99110.34
2017-12-28T13:44:31.863Z,99113.62
2017-12-28T13:46:58.700Z,99120.52
2017-12-28T13:49:26.272Z,99118.45
2017-12-28T13:51:53.825Z,99129.88
2017-12-28T13:54:20.673Z,99135.01
2017-12-28T13:56:47.491Z,99128.52
2017-12-28T13:59:14.331Z,99136.52
2017-12-28T14:01:41.890Z,99140.36
2017-12-28T14:04:08.718Z,99145.45
2017-12-28T14:06:35.519Z,99144.34
2017-12-28T14:09:02.454Z,99160.66
2017-12-28T14:11:29.242Z,99158.76
2017-12-28T14:13:56.076Z,99160.83
2017-12-28T14:16:22.926Z,99160.01
2017-12-28T14:18:49.818Z,99166.09
2017-12-28T14:21:16.616Z,99172.09
2017-12-28T14:23:43.401Z,99177.13
2017-12-28T14:26:10.241Z,99183.66
2017-12-28T14:28:37.089Z,99180.27
2017-12-28T14:31:03.945Z,99191.02
2017-12-28T14:33:31.549Z,99189.98
2017-12-28T14:35:58.358Z,99194.73
2017-12-28T14:38:25.176Z,99200.87
2017-12-28T14:40:52.083Z,99208.76
2017-12-28T14:43:18.880Z,99206.30
2017-12-28T14:45:45.753Z,99215.84
2017-12-28T14:48:12.578Z,99213.61
2017-12-28T14:50:39.409Z,99216.13
2017-12-28T14:53:06.294Z,99215.06
2017-12-28T14:55:33.108Z,99220.67
2017-12-28T14:57:59.913Z,99218.64
2017-12-28T15:00:26.739Z,99221.48
2017-12-28T15:02:53.547Z,99222.05
2017-12-28T15:05:20.345Z,99225.49
2017-12-28T15:07:47.150Z,99234.27
2017-12-28T15:10:13.968Z,99233.67
2017-12-28T15:12:40.792Z,99240.13
2017-12-28T15:15:08.406Z,99235.95
2017-12-28T15:17:35.275Z,99244.08
2017-12-28T15:20:02.089Z,99256.27
2017-12-28T15:22:29.654Z,99254.47
2017-12-28T15:24:56.480Z,99258.30
2017-12-28T15:27:23.297Z,99265.03
2017-12-28T15:29:50.823Z,99266.00
2017-12-28T15:32:17.666Z,99263.30
2017-12-28T15:34:44.468Z,99272.05
2017-12-28T15:37:11.305Z,99268.41
2017-12-28T15:39:38.119Z,99278.06
2017-12-28T15:42:05.652Z,99276.30
2017-12-28T15:44:32.450Z,99276.30
2017-12-28T15:46:59.986Z,99280.74
2017-12-28T15:49:26.797Z,99280.88
2017-12-28T15:51:53.633Z,99279.23
2017-12-28T15:54:20.468Z,99286.58
2017-12-28T15:56:47.303Z,99278.11
2017-12-28T15:59:14.181Z,99286.22
2017-12-28T16:01:40.983Z,99287.53
2017-12-28T16:04:07.823Z,99288.95
2017-12-28T16:06:34.648Z,99293.64
2017-12-28T16:09:01.473Z,99295.86
2017-12-28T16:11:28.315Z,99296.09
2017-12-28T16:13:55.162Z,99307.03
2017-12-28T16:16:22.009Z,99311.86
2017-12-28T16:18:48.814Z,99311.23
2017-12-28T16:21:15.925Z,99308.09
2017-12-28T16:23:42.756Z,99314.90
2017-12-28T16:26:10.342Z,99311.70
2017-12-28T16:28:37.171Z,99327.25
2017-12-28T16:31:03.956Z,99320.98
2017-12-28T16:33:31.525Z,99333.89
2017-12-28T16:35:59.063Z,99336.31
2017-12-28T16:38:25.879Z,99350.24
2017-12-28T16:40:52.722Z,99339.78
2017-12-28T16:43:20.279Z,99345.36
2017-12-28T16:45:47.112Z,99351.95
2017-12-28T16:48:13.943Z,99358.92
2017-12-28T16:50:40.758Z,99361.95
2017-12-28T16:53:09.912Z,99360.48
2017-12-28T16:55:37.563Z,99361.88
2017-12-28T16:58:04.377Z,99359.20
2017-12-28T17:00:32.386Z,99358.58
2017-12-28T17:02:59.999Z,99345.76
2017-12-28T17:05:27.545Z,99347.53
2017-12-28T17:07:54.363Z,99361.44
2017-12-28T17:10:21.169Z,99366.22
2017-12-28T17:12:47.985Z,99370.33
2017-12-28T17:15:14.839Z,99372.59
2017-12-28T17:17:41.688Z,99369.91
2017-12-28T17:20:09.281Z,99374.98
2017-12-28T17:22:36.105Z,99378.35
2017-12-28T17:25:03.089Z,99381.33
2017-12-28T17:27:30.722Z,99391.94
2017-12-28T17:29:57.561Z,99386.11
2017-12-28T17:32:24.366Z,99394.45
2017-12-28T17:34:51.226Z,99391.94
2017-12-28T17:37:18.097Z,99399.88
2017-12-28T17:39:44.969Z,99389.64
2017-12-28T17:42:12.585Z,99402.34
2017-12-28T17:44:39.410Z,99401.46
2017-12-28T17:47:06.989Z,99403.69
2017-12-28T17:49:33.828Z,99407.63
2017-12-28T17:52:00.668Z,99399.94
2017-12-28T17:54:27.489Z,99403.84
2017-12-28T17:56:55.261Z,99412.94
2017-12-28T17:59:22.135Z,99420.25
2017-12-28T18:01:48.997Z,99413.63
2017-12-28T18:04:16.655Z,99430.56
2017-12-28T18:06:43.514Z,99423.63
2017-12-28T18:09:11.144Z,99429.67
2017-12-28T18:11:38.030Z,99442.11
2017-12-28T18:14:04.926Z,99435.44
2017-12-28T18:16:32.473Z,99431.50
2017-12-28T18:18:59.444Z,99438.81
2017-12-28T18:21:26.290Z,99443.08
2017-12-28T18:23:53.377Z,99455.91
2017-12-28T18:26:20.232Z,99436.20
2017-12-28T18:28:47.080Z,99451.72
2017-12-28T18:31:14.469Z,99457.26
2017-12-28T18:33:42.313Z,99452.93
2017-12-28T18:36:09.219Z,99460.26
2017-12-28T18:38:36.100Z,99464.33
2017-12-28T18:41:02.977Z,99467.20
2017-12-28T18:43:29.813Z,99473.32
2017-12-28T18:45:56.730Z,99474.54
2017-12-28T18:48:23.635Z,99479.13
2017-12-28T18:50:52.301Z,99483.69
2017-12-28T18:53:19.529Z,99475.83
2017-12-28T18:55:48.065Z,99479.16
2017-12-28T18:58:14.980Z,99480.73
2017-12-28T19:00:43.598Z,99482.13
2017-12-28T19:03:14.640Z,99478.54
2017-12-28T19:21:43.422Z,99499.55
2017-12-28T19:24:11.462Z,99506.95
2017-12-28T19:26:40.201Z,99504.83
2017-12-28T19:29:07.168Z,99513.70
2017-12-28T19:31:36.419Z,99520.79
2017-12-28T19:34:04.061Z,99522.17
2017-12-28T19:36:32.554Z,99520.84
2017-12-28T19:39:01.938Z,99520.19
2017-12-28T19:41:30.682Z,99519.48
2017-12-28T19:43:58.930Z,99526.05
2017-12-28T19:46:28.436Z,99525.38
2017-12-28T19:48:58.494Z,99525.27
2017-12-28T19:51:27.338Z,99523.25
2017-12-28T19:53:56.317Z,99524.94
2017-12-28T19:56:25.182Z,99527.73
2017-12-28T19:58:53.972Z,99522.50
2017-12-28T20:01:23.111Z,99532.61
2017-12-28T20:03:51.710Z,99534.27
2017-12-28T20:06:21.248Z,99528.80
2017-12-28T20:08:50.198Z,99534.19
2017-12-28T20:11:19.190Z,99534.08
2017-12-28T20:13:48.001Z,99536.98
2017-12-28T20:16:16.969Z,99541.67
2017-12-28T20:18:46.581Z,99545.29
2017-12-28T20:21:15.376Z,99544.55
2017-12-28T20:23:44.302Z,99548.11
2017-12-28T20:26:13.955Z,99547.92
2017-12-28T20:28:42.554Z,99548.75
2017-12-28T20:31:11.446Z,99561.77
2017-12-28T20:33:41.157Z,99551.00
2017-12-28T20:36:12.915Z,99564.50
2017-12-28T20:38:41.985Z,99562.97
2017-12-28T20:41:11.067Z,99554.17
2017-12-28T20:43:40.887Z,99568.05
2017-12-28T20:46:09.772Z,99560.88
2017-12-28T20:48:38.921Z,99568.70
2017-12-28T20:51:07.818Z,99568.55
2017-12-28T20:53:37.877Z,99578.18
2017-12-28T20:56:06.836Z,99584.73
2017-12-28T20:58:35.652Z,99585.76
2017-12-28T21:01:03.806Z,99582.87
2017-12-28T21:03:34.397Z,99589.02
2017-12-28T21:06:03.150Z,99589.80
2017-12-28T21:08:32.688Z,99593.08
2017-12-28T21:11:01.500Z,99592.39
2017-12-28T21:13:30.261Z,99590.04
2017-12-28T21:15:58.758Z,99598.34
2017-12-28T21:18:27.636Z,99599.19
2017-12-28T21:20:56.553Z,99598.49
2017-12-28T21:23:25.415Z,99601.79
2017-12-28T21:25:53.148Z,99601.98
2017-12-28T21:28:21.428Z,99594.22
2017-12-28T21:30:48.868Z,99609.20
2017-12-28T21:33:17.118Z,99603.98
2017-12-28T21:35:45.465Z,99609.53
2017-12-28T21:38:13.800Z,99614.60
2017-12-28T21:40:40.920Z,99609.35
2017-12-28T21:43:08.601Z,99610.95
2017-12-28T21:45:38.139Z,99612.70
2017-12-28T21:48:05.775Z,99612.84
2017-12-28T21:50:34.618Z,99625.90
2017-12-28T21:53:03.240Z,99624.96
2017-12-28T21:55:31.447Z,99623.93
2017-12-28T21:57:59.631Z,99625.22
2017-12-28T22:00:28.414Z,99635.95
2017-12-28T22:02:57.644Z,99647.14
2017-12-28T22:05:25.244Z,99651.95
2017-12-28T22:07:52.490Z,99642.02
2017-12-28T22:10:19.811Z,99651.58
2017-12-28T22:12:47.694Z,99648.55
2017-12-28T22:15:15.175Z,99656.91
2017-12-28T22:17:43.033Z,99652.67
2017-12-28T22:20:10.525Z,99654.93
2017-12-28T22:22:37.434Z,99667.55
2017-12-28T22:25:04.378Z,99663.41
2017-12-28T22:27:31.401Z,99669.66
2017-12-28T22:29:59.033Z,99667.05
2017-12-28T22:32:25.925Z,99674.22
2017-12-28T22:34:52.812Z,99673.87
2017-12-28T22:37:20.350Z,99676.54
2017-12-28T22:39:47.152Z,99687.26
2017-12-28T22:42:14.004Z,99699.69
2017-12-28T22:44:40.828Z,99691.97
2017-12-28T22:47:07.642Z,99707.09
2017-12-28T22:49:35.456Z,99708.95
2017-12-28T22:52:02.261Z,99699.02
2017-12-28T22:54:29.073Z,99699.93
2017-12-28T22:56:56.243Z,99696.34
2017-12-28T22:59:23.113Z,99709.89
2017-12-28T23:01:50.001Z,99706.23
2017-12-28T23:04:16.805Z,99707.67
2017-12-28T23:06:43.635Z,99711.70
2017-12-28T23:09:11.245Z,99715.92
2017-12-28T23:11:38.068Z,99718.72
2017-12-28T23:14:04.915Z,99722.00
2017-12-28T23:16:31.804Z,99722.12
2017-12-28T23:18:59.372Z,99727.22
2017-12-28T23:21:26.151Z,99725.41
2017-12-28T23:23:52.998Z,99726.98
2017-12-28T23:26:19.807Z,99736.39
2017-12-28T23:28:46.596Z,99734.66
2017-12-28T23:31:13.396Z,99735.67
2017-12-28T23:33:40.932Z,99741.57
2017-12-28T23:36:07.724Z,99748.05
2017-12-28T23:38:34.597Z,99743.61
2017-12-28T23:41:01.399Z,99747.52
2017-12-28T23:43:28.221Z,99751.69
2017-12-28T23:45:55.064Z,99750.14
2017-12-28T23:48:22.601Z,99755.28
2017-12-28T23:50:49.502Z,99755.89
2017-12-28T23:53:17.110Z,99756.67
2017-12-28T23:55:43.927Z,99764.27
2017-12-28T23:58:10.793Z,99759.80
